Airport View

Enter AWOS ICAO identifier for current METAR.

ex. KFNL

KMVN 131556Z AUTO 20019G25KT 10SM SCT120 04/M08 A2969 RMK AO2 PK WND 20027/1544 PRESFR SLP058 T00441078

13 Dec 2017 16:33

Frequency: 113.8

Phone: 618-242-7933

Other Area AWOS: KENL - KSLO - KFWC - KFOA

TAF KBLV 131600Z 1316/1422 22015G25KT 9999 FEW080 QNH2965INS BECMG 1316/1317 30025G35KT 9999 SCT045 510003 QNH2957INS BECMG 1402/1403 32015G25KT 9999 OVC020 620204 510203 QNH2978INS BECMG 1407/1408 33012G18KT 9999 SCT020 QNH2990INS BECMG 1409/1410 35012KT 9999 SCT030 QNH2995INS TX12/1321Z TN02/1316Z